地図

経路データ

SID SEASON NUMBER BASIN SUBBASIN NAME ISO_TIME NATURE LAT LON WMO_WIND WMO_PRES WMO_AGENCY TRACK_TYPE DIST2LAND LANDFALL IFLAG USA_AGENCY USA_ATCF_ID USA_LAT USA_LON USA_RECORD USA_STATUS USA_WIND USA_PRES USA_SSHS USA_R34_NE USA_R34_SE USA_R34_SW USA_R34_NW USA_R50_NE USA_R50_SE USA_R50_SW USA_R50_NW USA_R64_NE USA_R64_SE USA_R64_SW USA_R64_NW USA_POCI USA_ROCI USA_RMW USA_EYE TOKYO_LAT TOKYO_LON TOKYO_GRADE TOKYO_WIND TOKYO_PRES TOKYO_R50_DIR TOKYO_R50_LONG TOKYO_R50_SHORT TOKYO_R30_DIR TOKYO_R30_LONG TOKYO_R30_SHORT TOKYO_LAND CMA_LAT CMA_LON CMA_CAT CMA_WIND CMA_PRES HKO_LAT HKO_LON HKO_CAT HKO_WIND HKO_PRES NEWDELHI_LAT NEWDELHI_LON NEWDELHI_GRADE NEWDELHI_WIND NEWDELHI_PRES NEWDELHI_CI NEWDELHI_DP NEWDELHI_POCI REUNION_LAT REUNION_LON REUNION_TYPE REUNION_WIND REUNION_PRES REUNION_TNUM REUNION_CI REUNION_RMW REUNION_R34_NE REUNION_R34_SE REUNION_R34_SW REUNION_R34_NW REUNION_R50_NE REUNION_R50_SE REUNION_R50_SW REUNION_R50_NW REUNION_R64_NE REUNION_R64_SE REUNION_R64_SW REUNION_R64_NW BOM_LAT BOM_LON BOM_TYPE BOM_WIND BOM_PRES BOM_TNUM BOM_CI BOM_RMW BOM_R34_NE BOM_R34_SE BOM_R34_SW BOM_R34_NW BOM_R50_NE BOM_R50_SE BOM_R50_SW BOM_R50_NW BOM_R64_NE BOM_R64_SE BOM_R64_SW BOM_R64_NW BOM_ROCI BOM_POCI BOM_EYE BOM_POS_METHOD BOM_PRES_METHOD NADI_LAT NADI_LON NADI_CAT NADI_WIND NADI_PRES WELLINGTON_LAT WELLINGTON_LON WELLINGTON_WIND WELLINGTON_PRES DS824_LAT DS824_LON DS824_STAGE DS824_WIND DS824_PRES TD9636_LAT TD9636_LON TD9636_STAGE TD9636_WIND TD9636_PRES TD9635_LAT TD9635_LON TD9635_WIND TD9635_PRES TD9635_ROCI NEUMANN_LAT NEUMANN_LON NEUMANN_CLASS NEUMANN_WIND NEUMANN_PRES MLC_LAT MLC_LON MLC_CLASS MLC_WIND MLC_PRES USA_GUST BOM_GUST BOM_GUST_PER REUNION_GUST REUNION_GUST_PER USA_SEAHGT USA_SEARAD_NE USA_SEARAD_SE USA_SEARAD_SW USA_SEARAD_NW STORM_SPEED STORM_DIR
1874070S13045 1874 7 SI MM NOT_NAMED 1874-03-10 18:00:00 NR -13.5000 44.8000 main 281 272 __________O___ -1 -13.5000 44.8000 7 2 239
1874070S13045 1874 7 SI MM NOT_NAMED 1874-03-10 21:00:00 NR -13.5609 44.6953 main 272 272 __________P___ -1 -13.5609 44.6953 7 2 239
1874070S13045 1874 7 SI MM NOT_NAMED 1874-03-11 00:00:00 NR -13.6275 44.5824 main 273 265 __________P___ -1 -13.6275 44.5824 7 3 238
1874070S13045 1874 7 SI MM NOT_NAMED 1874-03-11 03:00:00 NR -13.7053 44.4534 main 265 265 __________P___ -1 -13.7053 44.4534 7 2 239
1874070S13045 1874 7 SI MM NOT_NAMED 1874-03-11 06:00:00 NR -13.7200 44.4200 reunion main 268 257 _____O____O___ -1 -13.4000 44.9000 99 9.90000 -13.8000 44.3000 7 1 240
1874070S13045 1874 7 SI MM NOT_NAMED 1874-03-11 09:00:00 NR -13.7604 44.3503 main 257 257 _____P____P___ -1 -13.4518 44.8156 99 -13.9147 44.1176 7 2 239
1874070S13045 1874 7 SI MM NOT_NAMED 1874-03-11 12:00:00 NR -13.8120 44.2642 main 260 254 _____P____P___ -1 -13.5047 44.7297 99 -14.0426 43.9151 7 2 238
1874070S13045 1874 7 SI MM NOT_NAMED 1874-03-11 15:00:00 NR -13.8668 44.1730 main 254 253 _____P____P___ -1 -13.5595 44.6408 99 -14.1741 43.7051 7 3 238
1874070S13045 1874 7 SI MM NOT_NAMED 1874-03-11 18:00:00 NR -13.9587 44.0238 main 253 253 _____P____O___ -1 -13.6175 44.5475 99 -14.3000 43.5000 7 3 238
1874070S13045 1874 7 SI MM NOT_NAMED 1874-03-11 21:00:00 NR -14.0413 43.8810 main 258 248 _____P____P___ -1 -13.6794 44.4482 99 -14.4031 43.3137 7 3 239
1874070S13045 1874 7 SI MM NOT_NAMED 1874-03-12 00:00:00 NR -14.1232 43.7382 main 257 246 _____P____P___ -1 -13.7465 44.3416 99 -14.4999 43.1349 7 3 239
1874070S13045 1874 7 SI MM NOT_NAMED 1874-03-12 03:00:00 NR -14.2083 43.5948 main 250 243 _____P____P___ -1 -13.8197 44.2260 99 -14.5968 42.9637 7 3 238
1874070S13045 1874 7 SI MM NOT_NAMED 1874-03-12 06:00:00 NR -14.3000 43.4500 reunion main 243 238 _____O____O___ -1 -13.9000 44.1000 99 9.90000 -14.7000 42.8000 7 3 235
1874070S13045 1874 7 SI MM NOT_NAMED 1874-03-12 09:00:00 NR -14.4009 43.3088 main 243 239 _____P____P___ -1 -13.9882 43.9626 99 -14.8136 42.6549 7 3 233
1874070S13045 1874 7 SI MM NOT_NAMED 1874-03-12 12:00:00 NR -14.5095 43.1649 main 239 235 _____P____P___ -1 -14.0841 43.8149 99 -14.9348 42.5148 7 4 232
1874070S13045 1874 7 SI MM NOT_NAMED 1874-03-12 15:00:00 NR -14.6255 43.0129 main 236 225 _____P____P___ -1 -14.1874 43.6585 99 -15.0636 42.3673 7 4 232
1874070S13045 1874 7 SI MM NOT_NAMED 1874-03-12 18:00:00 NR -14.7488 42.8474 main 215 204 _____P____O___ -1 -14.2975 43.4948 99 -15.2000 42.2000 7 4 233
1874070S13045 1874 7 SI MM NOT_NAMED 1874-03-12 21:00:00 NR -14.8790 42.6646 main 204 193 _____P____P___ -1 -14.4143 43.3256 99 -15.3436 42.0037 7 3 234
1874070S13045 1874 7 SI MM NOT_NAMED 1874-03-13 00:00:00 NR -14.9467 42.5654 main 193 182 _____P____P___ -1 -14.5372 43.1523 99 -15.4928 41.7829 7 2 234
1874070S13045 1874 7 SI MM NOT_NAMED 1874-03-13 03:00:00 NR -14.9925 42.4996 main 182 182 _____P____P___ -1 -14.6659 42.9766 99 -15.6456 41.5457 7 1 233
1874070S13045 1874 7 SI MM NOT_NAMED 1874-03-13 06:00:00 NR -15.0000 42.5000 reunion main 182 182 _____O____O___ -1 -14.8000 42.8000 99 9.90000 -15.8000 41.3000 7 1 67
1874070S13045 1874 7 SI MM NOT_NAMED 1874-03-13 09:00:00 NR -14.9418 42.6240 main 193 182 _____P________ -1 -14.9418 42.6240 99 7 1 210
1874070S13045 1874 7 SI MM NOT_NAMED 1874-03-13 12:00:00 NR -15.0906 42.4452 main 172 162 _____P________ -1 -15.0906 42.4452 99 7 5 229
1874070S13045 1874 7 SI MM NOT_NAMED 1874-03-13 15:00:00 NR -15.2442 42.2651 main 162 143 _____P________ -1 -15.2442 42.2651 99 7 5 228
1874070S13045 1874 7 SI MM NOT_NAMED 1874-03-13 18:00:00 NR -15.4000 42.0853 main 146 130 _____P________ -1 -15.4000 42.0853 99 5 228
1874070S13045 1874 7 SI MM NOT_NAMED 1874-03-13 21:00:00 NR -15.5559 41.9073 main 135 122 _____P________ -1 -15.5559 41.9073 99 5 228
1874070S13045 1874 7 SI MM NOT_NAMED 1874-03-14 00:00:00 NR -15.7094 41.7327 main 122 116 _____P________ -1 -15.7094 41.7327 99 5 228
1874070S13045 1874 7 SI MM NOT_NAMED 1874-03-14 03:00:00 NR -15.8582 41.5631 main 120 108 _____P________ -1 -15.8582 41.5631 99 4 228
1874070S13045 1874 7 SI MM NOT_NAMED 1874-03-14 06:00:00 NR -16.0000 41.4000 reunion main 108 96 _____O________ -1 -16.0000 41.4000 99 9.90000 4 229
1874070S13045 1874 7 SI MM NOT_NAMED 1874-03-14 09:00:00 NR -16.1321 41.2369 main 96 93 _____P________ -1 -16.1321 41.2369 99 4 230
1874070S13045 1874 7 SI MM NOT_NAMED 1874-03-14 12:00:00 NR -16.2587 41.0789 main 100 92 _____P________ -1 -16.2587 41.0789 99 4 230
1874070S13045 1874 7 SI MM NOT_NAMED 1874-03-14 15:00:00 NR -16.3796 40.9270 main 92 85 _____P________ -1 -16.3796 40.9270 99 4 230
1874070S13045 1874 7 SI MM NOT_NAMED 1874-03-14 18:00:00 NR -16.4949 40.7824 main 91 81 _____P________ -1 -16.4949 40.7824 99 4 230
1874070S13045 1874 7 SI MM NOT_NAMED 1874-03-14 21:00:00 NR -16.6046 40.6462 main 78 77 _____P________ -1 -16.6046 40.6462 99 3 229
1874070S13045 1874 7 SI MM NOT_NAMED 1874-03-15 00:00:00 NR -16.7087 40.5196 main 77 72 _____P________ -1 -16.7087 40.5196 99 3 229
1874070S13045 1874 7 SI MM NOT_NAMED 1874-03-15 03:00:00 NR -16.8072 40.4038 main 72 69 _____P________ -1 -16.8072 40.4038 99 3 227
1874070S13045 1874 7 SI MM NOT_NAMED 1874-03-15 06:00:00 NR -16.9000 40.3000 reunion main 69 61 _____O________ -1 -16.9000 40.3000 99 9.90000 3 226
1874070S13045 1874 7 SI MM NOT_NAMED 1874-03-15 09:00:00 NR -16.9873 40.2088 main 70 64 _____P________ -1 -16.9873 40.2088 99 2 224
1874070S13045 1874 7 SI MM NOT_NAMED 1874-03-15 12:00:00 NR -17.0697 40.1291 main 74 74 _____P________ -1 -17.0697 40.1291 99 2 221
1874070S13045 1874 7 SI MM NOT_NAMED 1874-03-15 15:00:00 NR -17.1478 40.0592 main 74 74 _____P________ -1 -17.1478 40.0592 99 2 219
1874070S13045 1874 7 SI MM NOT_NAMED 1874-03-15 18:00:00 NR -17.2225 39.9975 main 79 79 _____P________ -1 -17.2225 39.9975 99 2 218
1874070S13045 1874 7 SI MM NOT_NAMED 1874-03-15 21:00:00 NR -17.2943 39.9424 main 84 84 _____P________ -1 -17.2943 39.9424 99 2 215
1874070S13045 1874 7 SI MM NOT_NAMED 1874-03-16 00:00:00 NR -17.3640 39.8922 main 92 85 _____P________ -1 -17.3640 39.8922 99 2 212
1874070S13045 1874 7 SI MM NOT_NAMED 1874-03-16 03:00:00 NR -17.4324 39.8453 main 85 85 _____P________ -1 -17.4324 39.8453 99 2 214
1874070S13045 1874 7 SI MM NOT_NAMED 1874-03-16 06:00:00 NR -17.5000 39.8000 reunion main 93 _____O________ -1 -17.5000 39.8000 99 9.90000 2 211

IBTrACS Databaseについて

本データベースは、米国NOAAが公開する1842年以降の世界の熱帯低気圧のベストトラックデータアーカイブInternational Best Track Archive for Climate Stewardship (IBTrACS)を、ウェブで閲覧しやすい形式に変換したものです。

最終更新日:2021-11-26